createdAt,value
2019-04-16T00:00:56.061Z,51.35498
2019-04-16T00:01:55.082Z,51.35498
2019-04-16T00:02:55.021Z,51.452637
2019-04-16T00:03:55.083Z,51.477051
2019-04-16T00:04:56.685Z,51.477051
2019-04-16T00:05:58.395Z,51.477051
2019-04-16T00:06:55.162Z,51.477051
2019-04-16T00:07:55.166Z,51.477051
2019-04-16T00:09:55.387Z,51.477051
2019-04-16T00:10:55.465Z,51.477051
2019-04-16T00:11:55.580Z,51.477051
2019-04-16T00:12:55.677Z,51.477051
2019-04-16T00:13:56.630Z,51.580811
2019-04-16T00:14:55.693Z,51.580811
2019-04-16T00:15:56.748Z,51.580811
2019-04-16T00:16:55.690Z,51.580811
2019-04-16T00:17:55.788Z,51.580811
2019-04-16T00:19:55.817Z,51.580811
2019-04-16T00:20:55.979Z,51.580811
2019-04-16T00:21:56.994Z,51.580811
2019-04-16T00:22:57.119Z,51.580811
2019-04-16T00:23:56.139Z,51.580811
2019-04-16T00:24:56.145Z,51.580811
2019-04-16T00:25:56.474Z,51.580811
2019-04-16T00:26:59.057Z,51.580811
2019-04-16T00:27:59.474Z,51.580811
2019-04-16T00:28:56.276Z,51.580811
2019-04-16T00:29:56.279Z,51.580811
2019-04-16T00:30:56.486Z,51.580811
2019-04-16T00:31:56.463Z,51.580811
2019-04-16T00:32:57.512Z,51.580811
2019-04-16T00:33:57.539Z,51.68457
2019-04-16T00:34:56.635Z,51.580811
2019-04-16T00:35:56.713Z,51.580811
2019-04-16T00:36:56.807Z,51.580811
2019-04-16T00:37:56.971Z,51.68457
2019-04-16T00:38:57.044Z,51.68457
2019-04-16T00:39:57.109Z,51.68457
2019-04-16T00:41:00.699Z,51.580811
2019-04-16T00:41:57.161Z,51.68457
2019-04-16T00:42:57.211Z,51.782227
2019-04-16T00:43:57.241Z,51.68457
2019-04-16T00:44:57.278Z,51.68457
2019-04-16T00:45:57.327Z,51.68457
2019-04-16T00:46:58.390Z,51.782227
2019-04-16T00:47:57.454Z,51.782227
2019-04-16T00:48:57.438Z,51.782227
2019-04-16T00:50:57.587Z,51.68457
2019-04-16T00:51:57.606Z,51.68457
2019-04-16T00:52:57.607Z,51.68457
2019-04-16T00:53:58.655Z,51.68457
2019-04-16T00:54:58.710Z,51.782227
2019-04-16T00:55:58.736Z,51.782227
2019-04-16T00:56:57.899Z,51.782227
2019-04-16T00:57:57.789Z,51.782227
2019-04-16T00:58:57.807Z,51.782227
2019-04-16T00:59:57.825Z,51.782227
2019-04-16T01:00:57.918Z,51.782227
2019-04-16T01:01:58.033Z,51.782227
2019-04-16T01:02:58.152Z,51.782227
2019-04-16T01:03:58.091Z,51.782227
2019-04-16T01:04:58.084Z,51.782227
2019-04-16T01:05:58.191Z,51.806641
2019-04-16T01:06:58.158Z,51.9104
2019-04-16T01:07:58.239Z,51.885986
2019-04-16T01:08:58.274Z,51.806641
2019-04-16T01:09:58.376Z,51.782227
2019-04-16T01:10:58.326Z,51.782227
2019-04-16T01:11:58.484Z,51.782227
2019-04-16T01:12:58.430Z,51.782227
2019-04-16T01:13:58.451Z,51.806641
2019-04-16T01:16:02.420Z,51.806641
2019-04-16T01:16:58.595Z,51.806641
2019-04-16T01:17:58.681Z,51.806641
2019-04-16T01:18:58.847Z,51.9104
2019-04-16T01:19:59.936Z,51.806641
2019-04-16T01:21:00.062Z,51.9104
2019-04-16T01:22:00.078Z,51.9104
2019-04-16T01:22:58.962Z,51.806641
2019-04-16T01:23:59.033Z,51.806641
2019-04-16T01:24:59.072Z,51.9104
2019-04-16T01:25:59.147Z,51.9104
2019-04-16T01:26:59.264Z,51.9104
2019-04-16T01:28:00.599Z,51.9104
2019-04-16T01:29:02.426Z,51.9104
2019-04-16T01:29:59.306Z,51.9104
2019-04-16T01:30:59.348Z,51.9104
2019-04-16T01:31:59.582Z,51.9104
2019-04-16T01:33:00.585Z,51.9104
2019-04-16T01:34:00.547Z,52.008057
2019-04-16T01:34:59.517Z,51.9104
2019-04-16T01:35:59.544Z,51.9104
2019-04-16T01:36:59.571Z,52.008057
2019-04-16T01:37:59.686Z,52.008057
2019-04-16T01:40:00.583Z,52.008057
2019-04-16T01:40:59.546Z,52.111816
2019-04-16T01:41:59.547Z,52.008057
2019-04-16T01:42:59.627Z,52.008057
2019-04-16T01:43:59.657Z,52.111816
2019-04-16T01:45:00.655Z,52.111816
2019-04-16T01:46:01.243Z,52.111816
2019-04-16T01:47:03.280Z,52.111816
2019-04-16T01:47:59.964Z,52.008057
2019-04-16T01:48:59.997Z,52.111816
2019-04-16T01:50:00.974Z,52.111816
2019-04-16T01:51:01.033Z,52.111816
2019-04-16T01:52:01.142Z,52.111816
2019-04-16T01:53:00.154Z,52.111816
2019-04-16T01:54:00.265Z,52.111816
2019-04-16T01:55:00.265Z,52.111816
2019-04-16T01:56:00.279Z,52.209473
2019-04-16T01:57:00.851Z,52.209473
2019-04-16T01:58:02.670Z,52.209473
2019-04-16T01:59:04.497Z,52.111816
2019-04-16T02:00:00.521Z,52.111816
2019-04-16T02:01:00.479Z,52.233887
2019-04-16T02:02:01.647Z,52.233887
2019-04-16T02:03:01.692Z,52.209473
2019-04-16T02:04:00.718Z,52.209473
2019-04-16T02:05:00.870Z,52.233887
2019-04-16T02:06:00.916Z,52.233887
2019-04-16T02:07:01.013Z,52.233887
2019-04-16T02:08:01.180Z,52.233887
2019-04-16T02:09:02.731Z,52.233887
2019-04-16T02:10:05.889Z,52.233887
2019-04-16T02:11:01.216Z,52.209473
2019-04-16T02:12:01.309Z,52.209473
2019-04-16T02:13:02.352Z,52.233887
2019-04-16T02:14:02.411Z,52.337646
2019-04-16T02:15:02.372Z,52.337646
2019-04-16T02:16:01.668Z,52.337646
2019-04-16T02:17:01.594Z,52.337646
2019-04-16T02:18:01.626Z,52.337646
2019-04-16T02:19:02.402Z,52.337646
2019-04-16T02:20:05.469Z,52.233887
2019-04-16T02:21:01.668Z,52.337646
2019-04-16T02:22:01.732Z,52.337646
2019-04-16T02:23:02.826Z,52.337646
2019-04-16T02:24:02.897Z,52.337646
2019-04-16T02:25:01.820Z,52.337646
2019-04-16T02:26:01.873Z,52.337646
2019-04-16T02:27:01.864Z,52.435303
2019-04-16T02:28:01.963Z,52.435303
2019-04-16T02:29:02.962Z,52.435303
2019-04-16T02:30:04.242Z,52.435303
2019-04-16T02:31:02.187Z,52.435303
2019-04-16T02:32:03.165Z,52.435303
2019-04-16T02:33:02.139Z,52.435303
2019-04-16T02:34:02.233Z,52.435303
2019-04-16T02:35:02.254Z,52.435303
2019-04-16T02:36:02.214Z,52.435303
2019-04-16T02:37:03.124Z,52.435303
2019-04-16T02:38:02.241Z,52.337646
2019-04-16T02:39:03.324Z,52.435303
2019-04-16T02:40:02.326Z,52.435303
2019-04-16T02:41:03.305Z,52.435303
2019-04-16T02:42:02.345Z,52.435303
2019-04-16T02:44:02.449Z,52.539062
2019-04-16T02:45:03.470Z,52.435303
2019-04-16T02:46:02.563Z,52.539062
2019-04-16T02:47:06.034Z,52.539062
2019-04-16T02:48:02.710Z,52.636719
2019-04-16T02:49:03.701Z,52.539062
2019-04-16T02:50:02.810Z,52.539062
2019-04-16T02:51:06.867Z,52.539062
2019-04-16T02:52:02.691Z,52.539062
2019-04-16T02:53:03.908Z,52.539062
2019-04-16T02:54:02.891Z,52.539062
2019-04-16T02:55:06.914Z,52.636719
2019-04-16T02:56:02.969Z,52.636719
2019-04-16T02:57:04.121Z,52.539062
2019-04-16T02:58:03.044Z,52.636719
2019-04-16T03:00:03.114Z,52.636719
2019-04-16T03:01:04.147Z,52.636719
2019-04-16T03:02:03.129Z,52.636719
2019-04-16T03:03:03.253Z,52.539062
2019-04-16T03:04:03.239Z,52.539062
2019-04-16T03:05:03.289Z,52.636719
2019-04-16T03:06:03.409Z,52.636719
2019-04-16T03:07:04.293Z,52.636719
2019-04-16T03:08:04.590Z,52.636719
2019-04-16T03:09:05.336Z,52.636719
2019-04-16T03:10:03.599Z,52.636719
2019-04-16T03:11:03.667Z,52.636719
2019-04-16T03:12:04.690Z,52.764893
2019-04-16T03:13:04.871Z,52.764893
2019-04-16T03:14:03.878Z,52.868652
2019-04-16T03:15:04.005Z,52.868652
2019-04-16T03:16:05.970Z,52.868652
2019-04-16T03:17:06.758Z,52.764893
2019-04-16T03:18:04.223Z,52.764893
2019-04-16T03:19:05.249Z,52.764893
2019-04-16T03:20:05.252Z,52.764893
2019-04-16T03:21:04.418Z,52.764893
2019-04-16T03:22:04.292Z,52.740479
2019-04-16T03:23:05.728Z,52.667236
2019-04-16T03:24:07.934Z,52.764893
2019-04-16T03:25:04.532Z,52.764893
2019-04-16T03:26:04.551Z,52.764893
2019-04-16T03:27:05.644Z,52.764893
2019-04-16T03:28:04.561Z,52.764893
2019-04-16T03:29:04.683Z,52.764893
2019-04-16T03:30:05.510Z,52.764893
2019-04-16T03:32:05.844Z,52.764893
2019-04-16T03:33:09.457Z,52.868652
2019-04-16T03:34:06.101Z,52.868652
2019-04-16T03:35:06.109Z,52.868652
2019-04-16T03:36:05.072Z,52.764893
2019-04-16T03:37:05.161Z,52.868652
2019-04-16T03:38:06.162Z,52.844238
2019-04-16T03:39:05.282Z,52.868652
2019-04-16T03:41:06.457Z,52.740479
2019-04-16T03:42:05.397Z,52.844238
2019-04-16T03:43:05.367Z,52.844238
2019-04-16T03:44:05.396Z,52.844238
2019-04-16T03:45:08.896Z,52.844238
2019-04-16T03:46:05.583Z,52.844238
2019-04-16T03:47:05.735Z,52.740479
2019-04-16T03:48:06.782Z,52.740479
2019-04-16T03:49:05.915Z,52.740479
2019-04-16T03:50:06.165Z,52.740479
2019-04-16T03:51:06.191Z,52.740479
2019-04-16T03:52:08.352Z,52.844238
2019-04-16T03:53:06.340Z,52.844238
2019-04-16T03:54:07.335Z,52.740479
2019-04-16T03:55:07.503Z,52.844238
2019-04-16T03:56:06.391Z,52.844238
2019-04-16T03:57:06.512Z,52.941895
2019-04-16T03:58:07.301Z,52.844238
2019-04-16T03:59:10.451Z,52.844238
2019-04-16T04:00:11.006Z,52.844238
2019-04-16T04:01:06.721Z,52.941895
2019-04-16T04:02:06.817Z,52.941895
2019-04-16T04:03:07.906Z,52.941895
2019-04-16T04:04:06.864Z,52.941895
2019-04-16T04:05:07.475Z,52.941895
2019-04-16T04:06:08.043Z,52.941895
2019-04-16T04:07:08.688Z,53.045654
2019-04-16T04:08:07.083Z,53.045654
2019-04-16T04:09:07.118Z,53.045654
2019-04-16T04:10:08.097Z,53.045654
2019-04-16T04:11:10.142Z,53.045654
2019-04-16T04:12:09.576Z,53.045654
2019-04-16T04:13:07.492Z,53.045654
2019-04-16T04:14:08.432Z,53.045654
2019-04-16T04:15:08.506Z,53.045654
2019-04-16T04:16:07.661Z,53.045654
2019-04-16T04:17:07.595Z,53.045654
2019-04-16T04:18:11.230Z,53.045654
2019-04-16T04:19:07.699Z,53.045654
2019-04-16T04:20:07.853Z,53.045654
2019-04-16T04:21:08.925Z,53.045654
2019-04-16T04:22:08.986Z,53.045654
2019-04-16T04:23:08.190Z,53.045654
2019-04-16T04:24:08.181Z,53.045654
2019-04-16T04:25:08.206Z,53.045654
2019-04-16T04:27:12.779Z,53.045654
2019-04-16T04:28:08.362Z,53.045654
2019-04-16T04:29:09.351Z,53.045654
2019-04-16T04:30:09.612Z,53.045654
2019-04-16T04:31:08.571Z,53.045654
2019-04-16T04:32:08.605Z,53.045654
2019-04-16T04:33:09.813Z,53.045654
2019-04-16T04:34:10.172Z,53.045654
2019-04-16T04:35:08.904Z,53.143311
2019-04-16T04:36:09.907Z,53.143311
2019-04-16T04:37:09.998Z,53.143311
2019-04-16T04:38:09.195Z,53.143311
2019-04-16T04:39:13.094Z,53.143311
2019-04-16T04:40:09.378Z,53.143311
2019-04-16T04:41:09.423Z,53.143311
2019-04-16T04:42:10.585Z,53.143311
2019-04-16T04:43:09.586Z,53.045654
2019-04-16T04:44:09.610Z,52.941895
2019-04-16T04:45:10.124Z,52.941895
2019-04-16T04:46:13.482Z,53.045654
2019-04-16T04:47:09.673Z,53.045654
2019-04-16T04:48:11.370Z,52.941895
2019-04-16T04:49:10.916Z,52.740479
2019-04-16T04:50:09.905Z,52.636719
2019-04-16T04:51:09.897Z,52.667236
2019-04-16T04:52:13.516Z,52.764893
2019-04-16T04:53:10.034Z,52.056885
2019-04-16T04:54:11.063Z,51.452637
2019-04-16T04:55:11.191Z,51.049805
2019-04-16T04:56:11.422Z,50.640869
2019-04-16T04:57:10.345Z,49.432373
2019-04-16T04:58:10.213Z,48.242188
2019-04-16T04:59:10.329Z,48.54126
2019-04-16T05:00:10.466Z,44.702148
2019-04-16T05:01:13.290Z,47.735596
2019-04-16T05:02:13.940Z,47.125244
2019-04-16T05:03:12.345Z,46.31958
2019-04-16T05:04:10.646Z,45.812988
2019-04-16T05:05:10.710Z,45.812988
2019-04-16T05:06:11.774Z,44.702148
2019-04-16T05:07:11.856Z,45.001221
2019-04-16T05:08:10.931Z,44.396973
2019-04-16T05:09:11.293Z,46.014404
2019-04-16T05:10:10.983Z,48.034668
2019-04-16T05:11:12.482Z,48.54126
2019-04-16T05:12:11.013Z,48.64502
2019-04-16T05:13:11.020Z,48.138428
2019-04-16T05:14:12.106Z,47.125244
2019-04-16T05:15:12.317Z,47.229004
2019-04-16T05:16:11.218Z,46.826172
2019-04-16T05:17:11.286Z,46.417236
2019-04-16T05:18:11.344Z,45.507812
2019-04-16T05:19:14.777Z,45.10498
2019-04-16T05:20:14.795Z,43.994141
2019-04-16T05:21:11.514Z,44.396973
2019-04-16T05:22:11.888Z,43.994141
2019-04-16T05:23:11.711Z,44.091797
2019-04-16T05:24:12.746Z,43.890381
2019-04-16T05:25:11.869Z,43.487549
2019-04-16T05:26:11.979Z,43.078613
2019-04-16T05:27:11.789Z,42.755127
2019-04-16T05:28:13.031Z,42.456055
2019-04-16T05:29:15.936Z,42.254639
2019-04-16T05:30:11.978Z,42.254639
2019-04-16T05:31:11.980Z,42.456055
2019-04-16T05:32:13.003Z,42.352295
2019-04-16T05:33:13.272Z,42.352295
2019-04-16T05:34:12.376Z,42.352295
2019-04-16T05:35:12.306Z,42.352295
2019-04-16T05:36:14.121Z,42.456055
2019-04-16T05:37:12.500Z,42.456055
2019-04-16T05:38:12.685Z,42.456055
2019-04-16T05:39:13.732Z,42.657471
2019-04-16T05:40:13.772Z,42.755127
2019-04-16T05:41:20.201Z,42.755127
2019-04-16T05:42:12.865Z,42.858887
2019-04-16T05:43:13.879Z,42.858887
2019-04-16T05:44:12.929Z,42.858887
2019-04-16T05:45:13.042Z,42.840576
2019-04-16T05:46:13.009Z,42.840576
2019-04-16T05:47:16.706Z,42.938232
2019-04-16T05:48:13.056Z,43.041992
2019-04-16T05:49:13.182Z,43.060303
2019-04-16T05:50:14.145Z,43.139648
2019-04-16T05:51:14.254Z,43.139648
2019-04-16T05:52:14.356Z,43.041992
2019-04-16T05:53:13.760Z,43.139648
2019-04-16T05:54:13.417Z,43.243408
2019-04-16T05:56:13.455Z,43.64624
2019-04-16T05:57:14.921Z,43.75
2019-04-16T05:58:14.697Z,43.951416
2019-04-16T05:59:14.841Z,44.049072
2019-04-16T06:00:13.860Z,44.250488
2019-04-16T06:01:15.222Z,44.354248
2019-04-16T06:02:14.614Z,44.458008
2019-04-16T06:03:13.974Z,44.555664
2019-04-16T06:04:14.141Z,44.555664
2019-04-16T06:05:15.129Z,44.75708
2019-04-16T06:06:15.194Z,44.75708
2019-04-16T06:07:17.435Z,44.86084
2019-04-16T06:08:14.782Z,44.958496
2019-04-16T06:09:14.451Z,45.062256
2019-04-16T06:10:17.661Z,45.263672
2019-04-16T06:12:15.785Z,45.465088
2019-04-16T06:13:14.486Z,45.465088
2019-04-16T06:14:17.504Z,45.446777
2019-04-16T06:15:15.509Z,45.648193
2019-04-16T06:16:14.844Z,45.947266
2019-04-16T06:17:14.593Z,45.648193
2019-04-16T06:18:17.741Z,45.74585
2019-04-16T06:19:16.173Z,45.947266
2019-04-16T06:20:18.921Z,46.069336
2019-04-16T06:21:15.116Z,46.051025
2019-04-16T06:22:15.926Z,46.051025
2019-04-16T06:23:16.010Z,46.148682
2019-04-16T06:24:15.976Z,46.276855
2019-04-16T06:25:15.538Z,46.374512
2019-04-16T06:26:16.813Z,46.148682
2019-04-16T06:27:15.100Z,46.148682
2019-04-16T06:28:15.169Z,46.148682
2019-04-16T06:29:15.215Z,46.148682
2019-04-16T06:30:16.515Z,46.148682
2019-04-16T06:31:16.509Z,46.356201
2019-04-16T06:32:16.572Z,46.252441
2019-04-16T06:33:16.706Z,46.356201
2019-04-16T06:34:15.751Z,46.759033
2019-04-16T06:35:15.782Z,46.655273
2019-04-16T06:36:16.027Z,46.960449
2019-04-16T06:37:20.240Z,46.759033
2019-04-16T06:38:17.189Z,46.734619
2019-04-16T06:39:16.199Z,46.838379
2019-04-16T06:40:17.141Z,46.960449
2019-04-16T06:41:17.082Z,46.960449
2019-04-16T06:42:20.892Z,47.058105
2019-04-16T06:43:16.112Z,47.161865
2019-04-16T06:44:16.305Z,47.363281
2019-04-16T06:45:17.158Z,47.363281
2019-04-16T06:46:16.123Z,47.564697
2019-04-16T06:47:16.219Z,47.467041
2019-04-16T06:48:16.388Z,47.338867
2019-04-16T06:49:18.839Z,47.442627
2019-04-16T06:50:29.490Z,47.540283
2019-04-16T06:51:17.226Z,47.741699
2019-04-16T06:52:17.710Z,47.668457
2019-04-16T06:53:16.281Z,47.741699
2019-04-16T06:54:17.232Z,47.741699
2019-04-16T06:55:17.210Z,47.845459
2019-04-16T06:56:16.168Z,47.741699
2019-04-16T06:57:16.631Z,47.845459
2019-04-16T06:58:17.749Z,47.845459
2019-04-16T06:59:17.600Z,47.845459
2019-04-16T07:00:17.963Z,47.741699
2019-04-16T07:01:17.402Z,47.949219
2019-04-16T07:02:16.702Z,47.924805
2019-04-16T07:03:16.442Z,47.821045
2019-04-16T07:04:16.664Z,47.619629
2019-04-16T07:05:17.822Z,47.723389
2019-04-16T07:06:19.106Z,48.046875
2019-04-16T07:07:16.636Z,48.046875
2019-04-16T07:08:19.245Z,48.150635
2019-04-16T07:09:23.253Z,48.022461
2019-04-16T07:10:17.891Z,48.150635
2019-04-16T07:11:18.329Z,48.223877
2019-04-16T07:12:16.864Z,48.352051
2019-04-16T07:13:16.989Z,48.449707
2019-04-16T07:14:17.243Z,48.553467
2019-04-16T07:15:22.033Z,48.651123
2019-04-16T07:16:18.041Z,48.754883
2019-04-16T07:17:18.419Z,48.852539
2019-04-16T07:18:20.671Z,48.852539
2019-04-16T07:19:17.996Z,48.931885
2019-04-16T07:20:17.222Z,49.035645
2019-04-16T07:21:32.460Z,49.261475
2019-04-16T07:22:34.181Z,49.359131
2019-04-16T07:23:32.232Z,49.438477
2019-04-16T07:24:36.398Z,49.560547
2019-04-16T07:25:38.725Z,49.536133
2019-04-16T07:26:33.501Z,49.639893
2019-04-16T07:29:54.953Z,50.164795
2019-04-16T07:30:55.346Z,50.164795
2019-04-16T07:31:55.643Z,50.268555
2019-04-16T07:32:54.886Z,50.146484
2019-04-16T07:33:55.574Z,49.938965
2019-04-16T07:34:55.120Z,50.146484
2019-04-16T07:35:55.432Z,50.146484
2019-04-16T07:36:56.513Z,50.146484
2019-04-16T07:37:56.015Z,50.12207
2019-04-16T07:38:58.178Z,50.445557
2019-04-16T07:39:56.006Z,50.323486
2019-04-16T07:40:56.903Z,50.524902
2019-04-16T07:42:59.145Z,50.726318
2019-04-16T07:43:56.209Z,51.251221
2019-04-16T07:44:56.478Z,50.927734
2019-04-16T07:45:58.411Z,50.726318
2019-04-16T07:46:57.815Z,50.622559
2019-04-16T07:47:59.860Z,50.848389
2019-04-16T07:48:56.696Z,50.927734
2019-04-16T07:49:59.753Z,50.952148
2019-04-16T07:50:56.302Z,51.025391
2019-04-16T07:52:07.254Z,50.823975
2019-04-16T07:52:56.219Z,50.726318
2019-04-16T07:53:56.844Z,50.823975
2019-04-16T07:54:58.191Z,50.927734
2019-04-16T07:55:57.406Z,50.823975
2019-04-16T07:56:58.492Z,51.226807
2019-04-16T07:57:57.584Z,51.428223
2019-04-16T07:58:59.880Z,51.330566
2019-04-16T07:59:59.497Z,51.226807
2019-04-16T08:00:57.042Z,51.330566
2019-04-16T08:01:57.495Z,51.428223
2019-04-16T08:02:57.380Z,51.428223
2019-04-16T08:03:56.713Z,51.428223
2019-04-16T08:04:56.163Z,51.531982
2019-04-16T08:05:57.579Z,51.507568
2019-04-16T08:06:58.708Z,51.403809
2019-04-16T08:07:56.047Z,51.611328
2019-04-16T08:08:58.204Z,51.104736
2019-04-16T08:10:00.969Z,51.202393
2019-04-16T08:10:57.991Z,51.104736
2019-04-16T08:11:57.240Z,51.202393
2019-04-16T08:13:00.444Z,50.90332
2019-04-16T08:13:57.460Z,50.90332
2019-04-16T08:15:11.869Z,50.799561
2019-04-16T08:15:58.054Z,50.90332
2019-04-16T08:16:58.645Z,50.90332
2019-04-16T08:17:57.387Z,51.104736
2019-04-16T08:18:56.377Z,51.403809
2019-04-16T08:19:56.632Z,51.000977
2019-04-16T08:21:01.564Z,50.976562
2019-04-16T08:21:57.755Z,50.67749
2019-04-16T08:22:57.333Z,50.976562
2019-04-16T08:23:57.917Z,51.080322
2019-04-16T08:25:02.450Z,50.976562
2019-04-16T08:26:03.011Z,50.653076
2019-04-16T08:26:57.695Z,50.878906
2019-04-16T08:27:58.203Z,50.976562
2019-04-16T08:28:57.684Z,51.080322
2019-04-16T08:30:02.086Z,51.281738
2019-04-16T08:30:59.948Z,51.281738
2019-04-16T08:31:57.700Z,51.080322
2019-04-16T08:32:57.647Z,50.756836
2019-04-16T08:33:57.815Z,50.854492
2019-04-16T08:34:59.197Z,51.177979
2019-04-16T08:35:56.899Z,51.379395
2019-04-16T08:36:57.605Z,51.586914
2019-04-16T08:37:58.276Z,51.586914
2019-04-16T08:38:57.377Z,51.45874
2019-04-16T08:39:57.452Z,51.45874
2019-04-16T08:40:58.056Z,51.660156
2019-04-16T08:41:59.397Z,51.68457
2019-04-16T08:42:58.343Z,51.586914
2019-04-16T08:43:59.643Z,51.5625
2019-04-16T08:45:00.083Z,51.5625
2019-04-16T08:46:09.928Z,51.45874
2019-04-16T08:46:59.273Z,51.5625
2019-04-16T08:47:58.719Z,51.660156
2019-04-16T08:49:00.244Z,51.45874
2019-04-16T08:49:58.261Z,51.45874
2019-04-16T08:50:59.326Z,51.257324
2019-04-16T08:52:00.221Z,51.361084
2019-04-16T08:52:58.274Z,51.45874
2019-04-16T08:53:58.277Z,51.23291
2019-04-16T08:55:01.618Z,51.33667
2019-04-16T08:55:57.951Z,51.660156
2019-04-16T08:56:57.451Z,51.5625
2019-04-16T08:57:57.773Z,51.660156
2019-04-16T08:59:00.765Z,51.861572
2019-04-16T08:59:58.937Z,52.166748
2019-04-16T09:00:58.406Z,52.264404
2019-04-16T09:01:58.013Z,52.264404
2019-04-16T09:02:59.187Z,52.264404
2019-04-16T09:04:01.173Z,52.166748
2019-04-16T09:04:58.594Z,52.264404
2019-04-16T09:06:22.957Z,52.368164
2019-04-16T09:07:10.031Z,52.368164
2019-04-16T09:08:11.247Z,52.667236
2019-04-16T09:09:11.479Z,52.56958
2019-04-16T09:09:59.518Z,52.368164
2019-04-16T09:11:00.205Z,52.368164
2019-04-16T09:11:58.625Z,52.46582
2019-04-16T09:13:03.650Z,52.56958
2019-04-16T09:13:58.162Z,52.667236
2019-04-16T09:14:57.741Z,52.56958
2019-04-16T09:15:57.762Z,52.56958
2019-04-16T09:16:58.798Z,52.56958
2019-04-16T09:17:58.015Z,52.56958
2019-04-16T09:18:57.534Z,52.642822
2019-04-16T09:19:57.499Z,52.46582
2019-04-16T09:20:59.050Z,52.667236
2019-04-16T09:22:01.373Z,52.770996
2019-04-16T09:22:59.814Z,52.770996
2019-04-16T09:24:06.640Z,52.770996
2019-04-16T09:24:59.365Z,52.642822
2019-04-16T09:27:01.996Z,52.642822
2019-04-16T09:28:00.701Z,52.642822
2019-04-16T09:29:00.527Z,52.642822
2019-04-16T09:29:57.993Z,52.539062
2019-04-16T09:30:58.951Z,52.441406
2019-04-16T09:31:58.204Z,52.441406
2019-04-16T09:33:00.695Z,52.539062
2019-04-16T09:34:05.248Z,52.441406
2019-04-16T09:35:59.410Z,52.740479
2019-04-16T09:39:22.491Z,52.844238
2019-04-16T09:40:16.950Z,52.844238
2019-04-16T09:41:15.399Z,52.941895
2019-04-16T09:42:17.511Z,52.844238
2019-04-16T09:43:18.136Z,52.740479
2019-04-16T09:44:14.690Z,52.642822
2019-04-16T09:45:15.460Z,52.337646
2019-04-16T09:47:15.030Z,53.649902
2019-04-16T09:48:14.868Z,52.441406
2019-04-16T09:49:14.545Z,52.539062
2019-04-16T09:50:13.941Z,52.23999
2019-04-16T09:51:18.612Z,51.934814
2019-04-16T09:52:15.878Z,51.934814
2019-04-16T09:53:13.857Z,51.934814
2019-04-16T09:54:14.927Z,51.635742
2019-04-16T09:55:15.133Z,51.538086
2019-04-16T09:56:14.196Z,51.434326
2019-04-16T09:57:15.625Z,51.409912
2019-04-16T09:58:15.924Z,51.434326
2019-04-16T09:59:18.741Z,51.312256
2019-04-16T10:00:16.790Z,51.208496
2019-04-16T10:01:14.267Z,51.135254
2019-04-16T10:02:14.582Z,51.11084
2019-04-16T10:03:15.386Z,51.208496
2019-04-16T10:04:15.349Z,51.00708
2019-04-16T10:05:14.655Z,51.11084
2019-04-16T10:06:15.579Z,51.538086
2019-04-16T10:07:14.205Z,51.513672
2019-04-16T10:08:14.981Z,51.208496
2019-04-16T10:09:19.710Z,51.11084
2019-04-16T10:10:14.563Z,51.208496
2019-04-16T10:11:18.359Z,51.11084
2019-04-16T10:12:14.133Z,51.00708
2019-04-16T10:13:14.456Z,51.11084
2019-04-16T10:14:15.051Z,51.00708
2019-04-16T10:15:14.181Z,51.00708
2019-04-16T10:16:14.515Z,51.11084
2019-04-16T10:17:14.547Z,51.135254
2019-04-16T10:18:14.178Z,51.33667
2019-04-16T10:19:14.391Z,51.00708
2019-04-16T10:20:14.263Z,51.23291
2019-04-16T10:21:18.222Z,51.135254
2019-04-16T10:22:15.449Z,51.135254
2019-04-16T10:23:14.290Z,50.909424
2019-04-16T10:24:14.430Z,51.208496
2019-04-16T10:25:14.285Z,51.312256
2019-04-16T10:26:14.740Z,51.312256
2019-04-16T10:27:14.384Z,51.409912
2019-04-16T10:28:15.408Z,51.538086
2019-04-16T10:29:14.826Z,51.635742
2019-04-16T10:30:14.522Z,51.733398
2019-04-16T10:31:14.339Z,51.837158
2019-04-16T10:32:17.439Z,52.038574
2019-04-16T10:33:14.720Z,52.038574
2019-04-16T10:34:15.400Z,52.13623
2019-04-16T10:35:14.960Z,52.23999
2019-04-16T10:36:14.376Z,52.23999
2019-04-16T10:37:14.707Z,52.23999
2019-04-16T10:38:14.655Z,52.23999
2019-04-16T10:39:14.429Z,52.337646
2019-04-16T10:40:14.792Z,52.337646
2019-04-16T10:41:14.457Z,52.337646
2019-04-16T10:42:14.483Z,52.441406
2019-04-16T10:43:14.458Z,52.313232
2019-04-16T10:44:24.033Z,52.215576
2019-04-16T10:46:44.912Z,52.514648
2019-04-16T10:47:52.934Z,52.416992
2019-04-16T10:48:44.729Z,52.642822
2019-04-16T10:49:45.992Z,52.618408
2019-04-16T10:50:46.047Z,52.313232
2019-04-16T10:51:44.687Z,52.416992
2019-04-16T10:52:44.923Z,52.514648
2019-04-16T10:53:44.770Z,52.514648
2019-04-16T10:54:45.467Z,52.618408
2019-04-16T10:55:44.835Z,52.716064
2019-04-16T10:57:54.750Z,52.618408
2019-04-16T10:58:54.670Z,52.716064
2019-04-16T10:59:53.951Z,52.716064
2019-04-16T11:00:54.058Z,52.819824
2019-04-16T11:06:36.510Z,53.118896
2019-04-16T11:07:34.619Z,53.02124
2019-04-16T11:08:34.684Z,53.02124
2019-04-16T11:09:34.604Z,53.02124
2019-04-16T11:10:34.488Z,53.02124
2019-04-16T11:11:36.387Z,53.02124
2019-04-16T11:12:34.891Z,53.118896
2019-04-16T11:13:35.197Z,53.02124
2019-04-16T11:14:35.915Z,53.118896
2019-04-16T11:16:16.694Z,53.222656
2019-04-16T11:17:05.709Z,53.222656
2019-04-16T11:18:05.004Z,53.222656
2019-04-16T11:19:04.603Z,53.222656
2019-04-16T11:20:05.152Z,53.118896
2019-04-16T11:21:04.647Z,53.118896
2019-04-16T11:22:05.215Z,53.118896
2019-04-16T11:23:07.004Z,53.222656
2019-04-16T11:24:04.754Z,53.222656
2019-04-16T11:25:04.793Z,53.222656
2019-04-16T11:26:04.307Z,53.222656
2019-04-16T11:27:05.673Z,53.118896
2019-04-16T11:28:05.557Z,53.118896
2019-04-16T11:29:04.685Z,53.118896
2019-04-16T11:30:04.548Z,53.118896
2019-04-16T11:31:05.397Z,53.094482
2019-04-16T11:32:04.805Z,53.094482
2019-04-16T11:33:04.829Z,53.118896
2019-04-16T11:34:04.784Z,53.198242
2019-04-16T11:35:04.599Z,53.198242
2019-04-16T11:37:08.036Z,53.198242
2019-04-16T11:38:04.531Z,52.996826
2019-04-16T11:39:05.880Z,52.79541
2019-04-16T11:40:05.761Z,52.69165
2019-04-16T11:42:05.043Z,52.490234
2019-04-16T11:43:04.682Z,52.191162
2019-04-16T11:45:05.348Z,50.683594
2019-04-16T11:46:04.658Z,50.579834
2019-04-16T11:47:05.316Z,50.482178
2019-04-16T11:48:04.632Z,50.280762
2019-04-16T11:49:04.853Z,50.280762
2019-04-16T11:50:06.434Z,50.177002
2019-04-16T11:51:05.255Z,49.87793
2019-04-16T11:52:04.843Z,49.572754
2019-04-16T11:53:05.109Z,49.371338
2019-04-16T11:54:04.877Z,49.176025
2019-04-16T11:55:04.652Z,49.072266
2019-04-16T11:56:04.357Z,48.773193
2019-04-16T11:57:04.614Z,48.571777
2019-04-16T11:58:04.186Z,48.370361
2019-04-16T11:59:04.301Z,48.266602
2019-04-16T12:00:06.919Z,48.065186